Time;durP1;ratioP1;P1;durP2;ratioP2;P2;SDS_P1;SDS_P2;PMS_P1;PMS_P2;Temp;Humidity;BMP_temperature;BMP_pressure;BME280_temperature;BME280_humidity;BME280_pressure;Samples;Min_cycle;Max_cycle;Signal;HPM_P1;HPM_P2
2023/09/29 00:00:41;;;;;;;14.95;2.80;;;18.80;99.90;;;;;;4874126;29;20051;-82
2023/09/29 00:03:08;;;;;;;9.77;2.30;;;18.80;99.90;;;;;;4873624;29;20780;-81
2023/09/29 00:05:33;;;;;;;12.02;2.33;;;18.90;99.90;;;;;;4872999;29;20120;-77
2023/09/29 00:07:59;;;;;;;15.25;2.47;;;18.90;99.90;;;;;;4870608;29;20123;-77
2023/09/29 00:10:25;;;;;;;10.48;2.67;;;19.00;99.90;;;;;;4869547;29;20044;-77
2023/09/29 00:12:51;;;;;;;13.00;2.50;;;19.00;99.90;;;;;;4862052;29;20025;-79
2023/09/29 00:15:18;;;;;;;12.82;2.53;;;19.00;99.90;;;;;;4854088;29;20030;-80
2023/09/29 00:17:44;;;;;;;13.60;2.60;;;18.90;99.90;;;;;;4874782;29;20052;-80
2023/09/29 00:20:44;;;;;;;14.77;2.70;;;18.90;99.90;;;;;;4873026;29;20033;-81
2023/09/29 00:23:03;;;;;;;15.10;2.50;;;18.90;99.90;;;;;;4871356;29;20139;-79
2023/09/29 00:25:29;;;;;;;12.25;2.95;;;18.90;99.90;;;;;;4872596;29;20024;-80
2023/09/29 00:27:56;;;;;;;15.10;2.85;;;18.90;99.90;;;;;;4872368;29;20053;-79
2023/09/29 00:30:23;;;;;;;12.27;2.20;;;18.90;99.90;;;;;;4872085;29;20044;-78
2023/09/29 00:32:50;;;;;;;13.98;2.50;;;19.00;99.90;;;;;;4868491;29;20063;-81
2023/09/29 00:35:24;;;;;;;9.40;2.40;;;19.00;99.90;;;;;;4872358;29;20029;-79
2023/09/29 00:37:57;;;;;;;12.20;2.60;;;19.00;99.90;;;;;;4871109;29;20141;-75
2023/09/29 00:40:23;;;;;;;15.52;2.70;;;18.90;99.90;;;;;;4871079;29;20037;-80
2023/09/29 00:42:48;;;;;;;15.55;2.58;;;18.90;99.90;;;;;;4870922;29;20028;-79
2023/09/29 00:45:19;;;;;;;10.15;2.60;;;18.90;99.90;;;;;;4871489;29;20036;-79
2023/09/29 00:47:46;;;;;;;9.55;2.67;;;18.90;99.90;;;;;;4872182;29;20041;-79
2023/09/29 00:50:14;;;;;;;11.43;2.25;;;18.90;99.90;;;;;;4871030;29;20036;-79
2023/09/29 00:52:42;;;;;;;10.70;2.60;;;18.80;99.90;;;;;;4856914;29;20068;-83
2023/09/29 00:55:14;;;;;;;17.00;2.90;;;18.80;99.90;;;;;;4853726;29;20033;-79
2023/09/29 00:57:44;;;;;;;13.88;3.08;;;18.80;99.90;;;;;;4853598;29;20038;-79
2023/09/29 01:00:29;;;;;;;10.48;2.55;;;18.80;99.90;;;;;;4871433;29;20531;-80
2023/09/29 01:02:56;;;;;;;19.83;2.88;;;18.70;99.90;;;;;;4871152;29;20419;-80
2023/09/29 01:05:21;;;;;;;12.00;2.38;;;18.80;99.90;;;;;;4872252;29;20520;-81
2023/09/29 01:07:47;;;;;;;16.15;2.70;;;18.70;99.90;;;;;;4872647;29;20073;-81
2023/09/29 01:10:13;;;;;;;12.40;2.67;;;18.70;99.90;;;;;;4872094;29;20037;-83
2023/09/29 01:12:43;;;;;;;12.18;2.95;;;18.80;99.90;;;;;;4869403;29;20052;-80
2023/09/29 01:15:12;;;;;;;18.33;3.40;;;18.80;99.90;;;;;;4872609;29;20037;-80
2023/09/29 01:17:41;;;;;;;13.98;3.17;;;18.80;99.90;;;;;;4873023;29;20116;-81
2023/09/29 01:20:14;;;;;;;16.30;2.90;;;18.80;99.90;;;;;;4870438;29;20029;-82
2023/09/29 01:22:49;;;;;;;15.98;2.42;;;18.80;99.90;;;;;;4855578;29;20528;-79
2023/09/29 01:25:16;;;;;;;15.52;3.03;;;18.80;99.90;;;;;;4869862;29;20029;-81
2023/09/29 01:27:41;;;;;;;12.85;2.70;;;18.90;99.90;;;;;;4872629;29;20153;-80
2023/09/29 01:30:08;;;;;;;9.30;2.42;;;18.90;99.90;;;;;;4871912;29;20115;-76
2023/09/29 01:32:34;;;;;;;11.95;2.95;;;19.00;99.90;;;;;;4868440;29;20053;-79
2023/09/29 01:35:00;;;;;;;10.52;2.35;;;19.00;99.90;;;;;;4872072;29;20047;-82
2023/09/29 01:37:26;;;;;;;10.82;2.38;;;19.10;99.90;;;;;;4872371;29;20857;-82
2023/09/29 01:39:52;;;;;;;10.75;2.28;;;19.10;99.90;;;;;;4870315;29;20486;-80
2023/09/29 01:42:18;;;;;;;13.88;2.50;;;19.10;99.90;;;;;;4851926;29;20108;-80
2023/09/29 01:44:43;;;;;;;8.88;2.40;;;19.10;99.90;;;;;;4865807;29;20048;-80
2023/09/29 01:47:09;;;;;;;9.80;2.58;;;19.10;99.90;;;;;;4852780;29;20399;-81
2023/09/29 01:49:34;;;;;;;14.40;2.80;;;19.10;99.90;;;;;;4853929;29;20075;-80
2023/09/29 01:52:00;;;;;;;14.90;2.42;;;19.10;99.90;;;;;;4869654;29;20115;-81
2023/09/29 01:54:25;;;;;;;11.95;2.60;;;19.10;99.90;;;;;;4875718;29;20546;-79
2023/09/29 01:56:51;;;;;;;15.15;2.63;;;19.20;99.90;;;;;;4874313;29;20060;-81
2023/09/29 01:59:16;;;;;;;12.20;2.33;;;19.20;99.90;;;;;;4874377;29;20033;-79
2023/09/29 02:01:42;;;;;;;14.55;2.90;;;19.20;99.90;;;;;;4874695;29;20082;-80
2023/09/29 02:04:07;;;;;;;12.07;2.65;;;19.10;99.90;;;;;;4875219;29;20116;-75
2023/09/29 02:06:33;;;;;;;18.40;3.05;;;18.90;99.90;;;;;;4871187;29;20040;-78
2023/09/29 02:08:59;;;;;;;13.20;3.05;;;18.80;99.90;;;;;;4869789;29;20510;-79
2023/09/29 02:11:24;;;;;;;11.77;2.92;;;18.70;99.90;;;;;;4872188;29;20093;-76
2023/09/29 02:13:50;;;;;;;14.75;3.03;;;18.60;99.90;;;;;;4873171;29;20037;-78
2023/09/29 02:16:15;;;;;;;13.68;3.00;;;18.60;99.90;;;;;;4872401;29;20854;-78
2023/09/29 02:18:44;;;;;;;12.73;3.15;;;18.50;99.90;;;;;;4857760;29;20034;-78
2023/09/29 02:21:18;;;;;;;15.00;3.15;;;18.50;99.90;;;;;;4865015;29;20583;-81
2023/09/29 02:23:44;;;;;;;9.10;3.25;;;18.50;99.90;;;;;;4859274;29;20045;-79
2023/09/29 02:26:10;;;;;;;13.25;3.25;;;18.50;99.90;;;;;;4872024;29;20077;-78
2023/09/29 02:28:36;;;;;;;12.32;3.15;;;18.50;99.90;;;;;;4872430;29;20455;-78
2023/09/29 02:31:02;;;;;;;15.02;2.95;;;18.50;99.90;;;;;;4872735;29;20025;-78
2023/09/29 02:33:29;;;;;;;12.43;3.15;;;18.50;99.90;;;;;;4872947;29;20064;-78
2023/09/29 02:35:56;;;;;;;10.13;2.88;;;18.40;99.90;;;;;;4886981;29;20226;-77
2023/09/29 02:38:22;;;;;;;14.90;3.13;;;18.40;99.90;;;;;;4865339;29;20047;-76
2023/09/29 02:40:48;;;;;;;10.85;2.72;;;18.40;99.90;;;;;;4872647;29;20029;-76
2023/09/29 02:43:13;;;;;;;9.70;2.53;;;18.40;99.90;;;;;;4873093;29;20036;-77
2023/09/29 02:45:40;;;;;;;9.05;2.10;;;18.40;99.90;;;;;;4872654;29;20040;-78
2023/09/29 02:48:06;;;;;;;8.18;1.88;;;18.40;99.90;;;;;;4873386;29;20100;-78
2023/09/29 02:50:35;;;;;;;11.40;2.53;;;18.40;99.90;;;;;;4867949;29;20029;-78
2023/09/29 02:53:05;;;;;;;8.70;2.25;;;18.40;99.90;;;;;;4867476;29;20031;-80
2023/09/29 02:55:30;;;;;;;8.50;2.50;;;18.40;99.90;;;;;;4888115;29;20025;-79
2023/09/29 02:57:56;;;;;;;12.52;2.85;;;18.40;99.90;;;;;;4872477;29;20039;-79
2023/09/29 03:00:26;;;;;;;10.75;2.50;;;18.40;99.90;;;;;;4872011;29;20033;-79
2023/09/29 03:02:52;;;;;;;8.02;2.05;;;18.50;99.90;;;;;;4866796;29;20120;-81
2023/09/29 03:05:22;;;;;;;7.18;1.90;;;18.40;99.90;;;;;;4875165;29;20037;-81
2023/09/29 03:07:47;;;;;;;11.52;2.15;;;18.40;99.90;;;;;;4871062;29;20050;-81
2023/09/29 03:10:15;;;;;;;11.20;2.20;;;18.40;99.90;;;;;;4873769;29;20041;-83
2023/09/29 03:12:42;;;;;;;10.38;1.83;;;18.40;99.90;;;;;;4861469;29;20086;-79
2023/09/29 03:15:09;;;;;;;6.75;1.90;;;18.40;99.90;;;;;;4873752;29;20503;-82
2023/09/29 03:17:36;;;;;;;6.35;1.58;;;18.40;99.90;;;;;;4875491;29;20395;-83
2023/09/29 03:20:08;;;;;;;10.35;1.98;;;18.40;99.90;;;;;;4873829;29;20025;-81
2023/09/29 03:22:37;;;;;;;7.72;1.63;;;18.40;99.90;;;;;;4873729;29;20040;-81
2023/09/29 03:25:03;;;;;;;7.63;1.50;;;18.40;99.90;;;;;;4874443;29;20539;-82
2023/09/29 03:27:29;;;;;;;7.70;1.30;;;18.40;99.90;;;;;;4873827;29;20073;-81
2023/09/29 03:29:55;;;;;;;8.07;1.40;;;18.40;99.90;;;;;;4874470;29;20067;-81
2023/09/29 03:32:20;;;;;;;7.97;1.50;;;18.40;99.90;;;;;;4874151;29;20085;-81
2023/09/29 03:34:48;;;;;;;10.00;1.40;;;18.30;99.90;;;;;;4881704;29;20142;-82
2023/09/29 03:37:14;;;;;;;8.95;1.20;;;18.30;99.90;;;;;;4873577;29;20585;-82
2023/09/29 03:39:39;;;;;;;5.78;1.20;;;18.30;99.90;;;;;;4874900;29;20047;-82
2023/09/29 03:42:05;;;;;;;8.93;1.60;;;18.30;99.90;;;;;;4875112;29;20029;-82
2023/09/29 03:44:32;;;;;;;11.90;1.50;;;18.30;99.90;;;;;;4874445;29;20036;-81
2023/09/29 03:46:57;;;;;;;8.30;1.25;;;18.30;99.90;;;;;;4874729;29;20383;-81
2023/09/29 03:49:23;;;;;;;8.52;1.50;;;18.30;99.90;;;;;;4872644;29;20029;-82
2023/09/29 03:51:49;;;;;;;5.95;1.20;;;18.30;99.90;;;;;;4874630;29;20037;-81
2023/09/29 03:54:14;;;;;;;4.32;1.10;;;18.30;99.90;;;;;;4874133;29;20040;-81
2023/09/29 03:56:40;;;;;;;7.07;1.25;;;18.30;99.90;;;;;;4874864;29;20033;-83
2023/09/29 03:59:05;;;;;;;3.83;0.90;;;18.30;99.90;;;;;;4873590;29;20650;-80
2023/09/29 04:01:32;;;;;;;4.63;1.00;;;18.30;99.90;;;;;;4872727;29;20391;-81
2023/09/29 04:03:57;;;;;;;9.50;1.05;;;18.20;99.90;;;;;;4873914;29;20579;-80
2023/09/29 04:06:23;;;;;;;6.20;1.25;;;18.30;99.90;;;;;;4873932;29;20128;-81
2023/09/29 04:08:49;;;;;;;5.28;0.90;;;18.20;99.90;;;;;;4871428;29;20767;-81
2023/09/29 04:11:15;;;;;;;5.35;1.00;;;18.20;99.90;;;;;;4866459;29;20082;-79
2023/09/29 04:13:43;;;;;;;5.53;0.93;;;18.20;99.90;;;;;;4878134;29;20036;-81
2023/09/29 04:16:08;;;;;;;4.38;0.88;;;18.30;99.90;;;;;;4866172;29;20025;-82
2023/09/29 04:18:35;;;;;;;4.93;0.60;;;18.20;99.90;;;;;;4861590;29;20040;-81
2023/09/29 04:21:01;;;;;;;2.70;0.80;;;18.30;99.90;;;;;;4869317;29;20449;-81
2023/09/29 04:23:27;;;;;;;3.85;0.88;;;18.30;99.90;;;;;;4873915;29;20056;-82
2023/09/29 04:25:53;;;;;;;3.17;0.73;;;18.20;99.90;;;;;;4869457;29;20092;-81
2023/09/29 04:28:19;;;;;;;3.60;0.60;;;18.30;99.90;;;;;;4874007;29;20140;-82
2023/09/29 04:30:45;;;;;;;5.63;0.57;;;18.30;99.90;;;;;;4868881;29;20022;-82
2023/09/29 04:33:11;;;;;;;3.45;0.60;;;18.30;99.90;;;;;;4858521;29;20088;-82
2023/09/29 04:35:36;;;;;;;4.40;0.75;;;18.30;99.90;;;;;;4874104;29;20090;-82
2023/09/29 04:38:02;;;;;;;4.13;0.57;;;18.30;99.90;;;;;;4873306;29;20081;-83
2023/09/29 04:40:28;;;;;;;1.52;0.40;;;18.20;99.90;;;;;;4865051;29;20040;-82
2023/09/29 04:42:54;;;;;;;3.13;0.90;;;18.30;99.90;;;;;;4862319;29;20527;-81
2023/09/29 04:45:19;;;;;;;2.97;0.52;;;18.30;99.90;;;;;;4861451;29;20025;-78
2023/09/29 04:47:45;;;;;;;3.58;0.60;;;18.30;99.90;;;;;;4872201;29;20040;-79
2023/09/29 04:50:11;;;;;;;2.65;0.70;;;18.20;99.90;;;;;;4869779;29;20041;-78
2023/09/29 04:52:37;;;;;;;1.77;0.60;;;18.20;99.90;;;;;;4870672;29;20097;-79
2023/09/29 04:55:03;;;;;;;1.20;0.50;;;18.20;99.90;;;;;;4871962;29;20044;-79
2023/09/29 04:57:28;;;;;;;1.05;0.32;;;18.10;99.90;;;;;;4864103;29;20048;-79
2023/09/29 04:59:54;;;;;;;3.22;0.30;;;18.10;99.90;;;;;;4871774;29;20061;-78
2023/09/29 05:02:19;;;;;;;0.63;0.20;;;18.00;99.90;;;;;;4870479;29;20120;-78
2023/09/29 05:04:45;;;;;;;2.00;0.20;;;17.90;99.90;;;;;;4870384;29;20581;-78
2023/09/29 05:07:12;;;;;;;1.90;0.20;;;17.90;99.90;;;;;;4868712;29;20693;-77
2023/09/29 05:09:37;;;;;;;0.60;0.20;;;17.80;99.90;;;;;;4863925;29;20249;-77
2023/09/29 05:12:04;;;;;;;1.55;0.20;;;17.70;99.90;;;;;;4869018;29;20072;-78
2023/09/29 05:14:30;;;;;;;0.20;0.10;;;17.60;99.90;;;;;;4870956;29;20041;-79
2023/09/29 05:16:55;;;;;;;0.15;0.15;;;17.50;99.90;;;;;;4865601;29;20722;-77
2023/09/29 05:19:21;;;;;;;0.45;0.10;;;17.50;99.90;;;;;;4859357;29;20137;-79
2023/09/29 05:21:46;;;;;;;0.63;0.20;;;17.40;99.90;;;;;;4872580;29;20112;-79
2023/09/29 05:24:12;;;;;;;0.20;0.20;;;17.30;99.90;;;;;;4870918;29;20511;-79
2023/09/29 05:26:38;;;;;;;3.65;0.20;;;17.30;99.90;;;;;;4871907;29;20037;-80
2023/09/29 05:29:04;;;;;;;0.95;0.10;;;17.20;99.90;;;;;;4876561;29;20041;-81
2023/09/29 05:31:30;;;;;;;0.43;0.20;;;17.10;99.90;;;;;;4875881;29;20037;-81
2023/09/29 05:33:56;;;;;;;1.05;0.20;;;17.10;99.90;;;;;;4876114;29;20736;-80
2023/09/29 05:36:21;;;;;;;1.65;0.20;;;17.00;99.90;;;;;;4874874;29;20033;-81
2023/09/29 05:38:47;;;;;;;0.98;0.30;;;17.00;99.90;;;;;;4874924;29;20073;-82
2023/09/29 05:41:13;;;;;;;0.93;0.40;;;17.00;99.90;;;;;;4871482;29;20048;-82
2023/09/29 05:43:39;;;;;;;0.98;0.20;;;17.00;99.90;;;;;;4875868;29;20483;-83
2023/09/29 05:46:04;;;;;;;0.70;0.20;;;17.00;99.90;;;;;;4867587;29;20036;-83
2023/09/29 05:48:30;;;;;;;0.40;0.10;;;17.00;99.90;;;;;;4859385;29;20933;-82
2023/09/29 05:50:55;;;;;;;0.28;0.20;;;17.00;99.90;;;;;;4876824;29;20041;-82
2023/09/29 05:53:21;;;;;;;1.20;0.20;;;17.00;99.90;;;;;;4876529;29;20029;-81
2023/09/29 05:55:47;;;;;;;0.30;0.20;;;16.90;99.90;;;;;;4870328;29;20583;-82
2023/09/29 05:58:12;;;;;;;0.47;0.13;;;16.90;99.90;;;;;;4874896;29;20024;-82
2023/09/29 06:00:39;;;;;;;1.08;0.20;;;16.90;99.90;;;;;;4871548;29;20033;-82
2023/09/29 06:03:05;;;;;;;0.90;0.30;;;16.90;99.90;;;;;;4877207;29;20111;-82
2023/09/29 06:05:31;;;;;;;0.30;0.20;;;17.00;99.90;;;;;;4873871;29;20113;-81
2023/09/29 06:07:57;;;;;;;16.42;11.80;;;17.00;99.90;;;;;;4873096;29;20066;-82
2023/09/29 06:10:23;;;;;;;118.50;66.95;;;17.00;99.90;;;;;;4876225;29;20037;-81
2023/09/29 06:12:48;;;;;;;20.88;11.55;;;17.00;99.90;;;;;;4876584;29;20080;-81
2023/09/29 06:15:14;;;;;;;3.42;1.60;;;17.00;99.90;;;;;;4874656;29;20029;-81
2023/09/29 06:17:39;;;;;;;3.40;1.23;;;17.10;99.90;;;;;;4872943;29;20127;-81
2023/09/29 06:20:06;;;;;;;2.17;2.08;;;17.10;99.90;;;;;;4876093;29;20108;-81
2023/09/29 06:22:34;;;;;;;2.97;0.93;;;17.10;99.90;;;;;;4874830;29;20063;-81
2023/09/29 06:25:00;;;;;;;0.57;0.30;;;17.10;99.90;;;;;;4875772;29;20491;-81
2023/09/29 06:27:27;;;;;;;220.15;153.43;;;17.10;99.90;;;;;;4876183;29;20092;-81
2023/09/29 06:29:52;;;;;;;16.73;11.38;;;17.10;99.90;;;;;;4876273;29;20106;-81
2023/09/29 06:32:19;;;;;;;0.77;0.60;;;17.10;99.90;;;;;;4869591;29;20319;-80
2023/09/29 06:34:44;;;;;;;1.50;1.40;;;17.10;99.90;;;;;;4888972;29;20025;-80
2023/09/29 06:37:10;;;;;;;1.98;0.90;;;16.90;99.90;;;;;;4874372;29;20033;-81
2023/09/29 06:39:36;;;;;;;0.70;0.50;;;16.90;99.90;;;;;;4874330;29;20061;-80
2023/09/29 06:42:03;;;;;;;2.60;0.70;;;16.90;99.90;;;;;;4875359;29;20044;-81
2023/09/29 06:44:29;;;;;;;319.80;203.07;;;16.90;99.90;;;;;;4875004;29;20380;-80
2023/09/29 06:46:55;;;;;;;11.27;6.32;;;16.90;99.90;;;;;;4874060;29;20033;-81
2023/09/29 06:49:20;;;;;;;1.17;1.00;;;16.90;99.90;;;;;;4868262;29;20052;-81
2023/09/29 06:51:46;;;;;;;2.45;1.70;;;16.90;99.90;;;;;;4874324;29;20134;-80
2023/09/29 06:54:12;;;;;;;4.72;0.73;;;16.90;99.90;;;;;;4874392;29;20391;-80
2023/09/29 07:02:02;;;;;;;7.53;2.28;;;17.00;99.90;;;;;;5194243;23;20092;-73
2023/09/29 07:04:28;;;;;;;2.10;1.10;;;17.00;99.90;;;;;;4885030;29;20067;-73
2023/09/29 07:06:53;;;;;;;3.92;2.80;;;17.00;99.90;;;;;;4876839;29;20041;-73
2023/09/29 07:09:19;;;;;;;3.15;1.10;;;17.00;99.90;;;;;;4878699;29;20037;-73
2023/09/29 07:11:44;;;;;;;3.53;0.93;;;17.10;99.90;;;;;;4883139;29;20029;-73
2023/09/29 07:14:10;;;;;;;1.83;0.77;;;17.20;99.90;;;;;;4884579;29;20140;-76
2023/09/29 07:16:36;;;;;;;2.83;1.08;;;17.30;99.90;;;;;;4869748;29;20722;-76
2023/09/29 07:19:03;;;;;;;2.72;1.10;;;17.40;99.90;;;;;;4865179;29;20144;-76
2023/09/29 07:21:28;;;;;;;2.65;1.05;;;17.40;99.90;;;;;;4885387;29;20028;-73
2023/09/29 07:23:56;;;;;;;2.67;1.05;;;17.50;99.90;;;;;;4886814;29;20156;-73
2023/09/29 07:26:22;;;;;;;2.85;0.80;;;17.60;99.90;;;;;;4888231;29;20060;-73
2023/09/29 07:28:48;;;;;;;0.98;0.50;;;17.60;99.90;;;;;;4880679;29;20199;-74
2023/09/29 07:31:13;;;;;;;3.92;0.95;;;17.70;99.90;;;;;;4876192;29;20044;-73
2023/09/29 07:33:39;;;;;;;1.98;0.70;;;17.80;99.90;;;;;;4878016;29;20036;-76
2023/09/29 07:36:05;;;;;;;3.42;0.90;;;18.00;99.90;;;;;;4882955;29;20044;-73
2023/09/29 07:38:31;;;;;;;2.55;0.85;;;18.30;99.90;;;;;;4881143;29;21570;-72
2023/09/29 07:40:56;;;;;;;2.67;0.90;;;18.40;99.90;;;;;;4885735;29;20025;-76
2023/09/29 07:43:22;;;;;;;3.35;1.00;;;18.30;99.90;;;;;;4875997;29;20709;-73
2023/09/29 07:45:48;;;;;;;2.90;0.88;;;18.20;99.90;;;;;;4871842;29;20051;-74
2023/09/29 07:48:15;;;;;;;2.47;0.75;;;18.20;99.90;;;;;;4875858;29;20049;-74
2023/09/29 07:50:41;;;;;;;1.23;0.70;;;18.10;99.90;;;;;;4875509;29;20087;-74
2023/09/29 07:53:07;;;;;;;6.13;1.88;;;18.10;99.90;;;;;;4884136;29;20410;-74
2023/09/29 07:55:32;;;;;;;3.08;1.08;;;18.00;99.90;;;;;;4876171;29;20084;-74
2023/09/29 07:57:58;;;;;;;5.07;1.35;;;18.00;99.90;;;;;;4880223;29;20036;-74
2023/09/29 08:00:24;;;;;;;6.45;2.22;;;17.90;99.90;;;;;;4872304;29;20633;-74
2023/09/29 08:02:49;;;;;;;5.80;1.90;;;17.80;99.90;;;;;;4884442;29;20032;-74
2023/09/29 08:05:15;;;;;;;3.70;1.17;;;17.80;99.90;;;;;;4879321;29;20108;-73
2023/09/29 08:07:41;;;;;;;2.72;0.95;;;17.80;99.90;;;;;;4866638;29;20035;-74
2023/09/29 08:10:10;;;;;;;1.73;0.70;;;17.70;99.90;;;;;;4866378;29;20399;-74
2023/09/29 08:12:36;;;;;;;1.67;0.77;;;17.60;99.90;;;;;;4882517;29;20456;-73
2023/09/29 08:15:06;;;;;;;1.75;0.90;;;17.50;99.90;;;;;;4882681;29;20029;-74
2023/09/29 08:17:32;;;;;;;1.57;0.70;;;17.50;99.90;;;;;;4880416;29;20455;-75
2023/09/29 08:19:58;;;;;;;1.30;0.60;;;17.60;99.90;;;;;;4882640;29;20435;-75
2023/09/29 08:22:24;;;;;;;1.45;0.77;;;17.70;99.90;;;;;;4884345;29;20121;-74
2023/09/29 08:24:49;;;;;;;1.98;0.65;;;17.80;99.90;;;;;;4874509;29;20364;-74
2023/09/29 08:27:15;;;;;;;2.67;0.47;;;17.90;99.90;;;;;;4881216;29;20040;-73
2023/09/29 08:29:41;;;;;;;1.95;0.65;;;17.90;99.90;;;;;;4881236;29;20041;-74
2023/09/29 08:32:06;;;;;;;3.20;0.93;;;17.90;99.90;;;;;;4873721;29;20818;-77
2023/09/29 08:34:34;;;;;;;1.73;0.55;;;17.80;99.90;;;;;;4880500;29;20039;-74
2023/09/29 08:37:00;;;;;;;1.45;0.50;;;17.80;99.90;;;;;;4880271;29;20137;-74
2023/09/29 08:39:25;;;;;;;1.90;0.90;;;17.70;99.90;;;;;;4882646;29;20064;-74
2023/09/29 08:42:23;;;;;;;2.13;0.75;;;17.70;99.90;;;;;;4869572;29;20553;-74
2023/09/29 08:44:49;;;;;;;1.67;0.63;;;17.80;99.90;;;;;;4869596;29;20109;-75
2023/09/29 08:47:21;;;;;;;2.25;0.57;;;17.90;99.90;;;;;;4875424;29;20032;-73
2023/09/29 08:49:48;;;;;;;1.50;0.68;;;17.90;99.90;;;;;;4872191;29;20046;-74
2023/09/29 08:52:17;;;;;;;4.35;0.70;;;18.00;99.90;;;;;;4873084;29;20043;-74
2023/09/29 08:54:43;;;;;;;2.28;0.80;;;17.90;99.90;;;;;;4873103;29;20025;-75
2023/09/29 08:57:08;;;;;;;1.83;0.70;;;17.90;99.90;;;;;;4875335;29;20794;-75
2023/09/29 08:59:36;;;;;;;1.60;0.50;;;18.00;99.90;;;;;;4870332;29;20036;-74
2023/09/29 09:02:01;;;;;;;1.95;0.40;;;18.20;99.90;;;;;;4879994;29;20882;-74
2023/09/29 09:04:30;;;;;;;3.40;0.85;;;18.40;99.90;;;;;;4877142;29;20044;-75
2023/09/29 09:06:55;;;;;;;4.38;1.15;;;18.70;99.90;;;;;;4874549;29;20021;-74
2023/09/29 09:09:23;;;;;;;2.75;0.63;;;19.00;99.90;;;;;;4876634;29;20040;-73
2023/09/29 09:11:49;;;;;;;1.52;0.70;;;19.20;99.90;;;;;;4886595;29;20032;-74
2023/09/29 09:14:15;;;;;;;2.70;0.68;;;20.10;99.90;;;;;;4882679;29;20558;-75
2023/09/29 09:16:41;;;;;;;1.83;0.75;;;22.90;99.90;;;;;;4882823;29;20035;-75
2023/09/29 09:19:12;;;;;;;1.75;0.70;;;26.10;99.90;;;;;;4875895;29;20068;-75
2023/09/29 09:21:37;;;;;;;3.90;0.88;;;29.00;99.90;;;;;;4883630;29;20104;-75
2023/09/29 09:24:04;;;;;;;2.50;1.00;;;31.30;94.00;;;;;;4875853;29;20626;-75
2023/09/29 09:26:30;;;;;;;2.38;0.95;;;32.80;84.00;;;;;;4880971;29;20029;-76
2023/09/29 09:29:09;;;;;;;3.00;1.10;;;34.00;72.10;;;;;;4876938;29;20040;-76
2023/09/29 09:31:45;;;;;;;2.17;0.90;;;35.10;66.30;;;;;;4882305;29;20036;-76
2023/09/29 09:34:12;;;;;;;3.67;1.08;;;35.20;58.10;;;;;;4879184;29;20079;-75
2023/09/29 09:36:55;;;;;;;4.45;1.10;;;35.10;58.30;;;;;;4880799;29;20032;-79
2023/09/29 09:39:22;;;;;;;3.53;1.10;;;35.30;58.20;;;;;;4879467;29;20437;-80
2023/09/29 09:41:54;;;;;;;2.88;1.05;;;35.00;55.00;;;;;;4879939;29;20126;-79
2023/09/29 09:44:23;;;;;;;2.92;1.23;;;34.10;55.00;;;;;;4875340;29;20873;-79
2023/09/29 09:46:57;;;;;;;3.88;1.50;;;33.00;55.70;;;;;;4872521;29;20092;-77
2023/09/29 09:49:28;;;;;;;3.88;1.50;;;31.70;59.10;;;;;;4875095;29;20037;-78
2023/09/29 09:52:01;;;;;;;2.97;1.20;;;30.30;61.00;;;;;;4880703;29;20039;-78
2023/09/29 09:54:30;;;;;;;4.82;1.55;;;29.00;66.30;;;;;;4873920;29;20044;-78
2023/09/29 09:57:09;;;;;;;4.30;1.25;;;29.40;71.00;;;;;;4874042;29;20032;-79
2023/09/29 09:59:36;;;;;;;3.00;1.30;;;30.30;64.50;;;;;;4875827;29;20037;-79
2023/09/29 10:02:06;;;;;;;3.40;1.65;;;31.20;64.10;;;;;;4875506;29;20059;-79
2023/09/29 10:04:34;;;;;;;4.47;1.70;;;32.10;66.10;;;;;;4875674;29;20051;-80
2023/09/29 10:07:00;;;;;;;3.58;1.30;;;33.30;58.20;;;;;;4875774;29;20033;-79
2023/09/29 10:09:26;;;;;;;4.43;1.50;;;33.90;56.90;;;;;;4874704;29;20580;-80
2023/09/29 10:11:58;;;;;;;3.90;1.63;;;33.80;57.00;;;;;;4879358;29;20036;-80
2023/09/29 10:14:24;;;;;;;4.55;1.65;;;33.50;56.50;;;;;;4882477;29;20036;-80
2023/09/29 10:17:06;;;;;;;5.32;1.73;;;33.70;58.20;;;;;;4874968;29;20033;-80
2023/09/29 10:19:38;;;;;;;6.07;1.50;;;33.70;53.60;;;;;;4540437;29;10000453;-80
2023/09/29 10:22:04;;;;;;;3.42;1.40;;;32.80;56.00;;;;;;4884783;29;20175;-80
2023/09/29 10:24:30;;;;;;;4.40;1.58;;;32.60;58.30;;;;;;4877338;29;20045;-80
2023/09/29 10:27:03;;;;;;;3.88;1.48;;;32.30;55.10;;;;;;4880986;29;20036;-80
2023/09/29 10:29:34;;;;;;;5.30;1.58;;;32.40;62.10;;;;;;4873623;29;20048;-79
2023/09/29 10:32:20;;;;;;;2.67;1.30;;;33.60;56.40;;;;;;4877322;29;20081;-80
2023/09/29 10:34:48;;;;;;;4.05;1.63;;;33.40;53.90;;;;;;4886256;29;20064;-79
2023/09/29 10:37:15;;;;;;;2.97;1.27;;;32.00;56.80;;;;;;4887427;29;20059;-81
2023/09/29 10:39:44;;;;;;;3.47;1.35;;;31.70;60.10;;;;;;4887062;29;20478;-80
2023/09/29 10:42:13;;;;;;;3.03;1.63;;;31.70;59.10;;;;;;4885543;29;20048;-80
2023/09/29 10:44:52;;;;;;;5.00;1.48;;;30.70;60.10;;;;;;4886654;29;20095;-80
2023/09/29 10:47:32;;;;;;;3.42;1.48;;;30.50;59.40;;;;;;4882226;29;20096;-80
2023/09/29 10:50:06;;;;;;;2.90;1.50;;;30.50;61.20;;;;;;4880244;29;20032;-76
2023/09/29 10:52:31;;;;;;;2.92;1.55;;;30.40;58.30;;;;;;4885513;29;20366;-76
2023/09/29 10:54:58;;;;;;;4.40;1.80;;;29.90;59.20;;;;;;4886117;29;20975;-76
2023/09/29 10:57:29;;;;;;;4.15;1.40;;;29.50;58.60;;;;;;4883952;29;20599;-77
2023/09/29 10:59:59;;;;;;;3.55;1.75;;;30.00;64.10;;;;;;4887095;29;20107;-76
2023/09/29 11:02:30;;;;;;;3.93;1.63;;;30.70;62.40;;;;;;4886881;29;20048;-77
2023/09/29 11:04:57;;;;;;;3.92;1.50;;;31.20;61.00;;;;;;4885003;29;20692;-76
2023/09/29 11:07:29;;;;;;;3.38;1.75;;;31.70;60.60;;;;;;4876541;29;20036;-76
2023/09/29 11:09:55;;;;;;;3.90;1.75;;;31.20;56.40;;;;;;4880729;29;20028;-77
2023/09/29 11:12:23;;;;;;;4.07;1.80;;;30.70;59.50;;;;;;4875675;29;20116;-77
2023/09/29 11:14:48;;;;;;;3.47;1.58;;;30.40;58.10;;;;;;4877663;29;20115;-76
2023/09/29 11:17:14;;;;;;;4.00;1.90;;;29.60;57.90;;;;;;4880756;29;20167;-77
2023/09/29 11:19:50;;;;;;;3.65;1.63;;;28.90;64.80;;;;;;4877728;29;20473;-76
2023/09/29 11:22:20;;;;;;;4.60;1.50;;;28.70;66.00;;;;;;4879564;29;20037;-77
2023/09/29 11:24:50;;;;;;;4.45;1.77;;;28.40;61.70;;;;;;4877282;29;20049;-76
2023/09/29 11:27:19;;;;;;;2.97;1.10;;;28.40;64.00;;;;;;4872655;29;20041;-76
2023/09/29 11:29:45;;;;;;;4.43;1.67;;;28.40;67.60;;;;;;4883461;29;20037;-76
2023/09/29 11:32:11;;;;;;;6.80;2.03;;;28.30;64.20;;;;;;4879621;29;20135;-77
2023/09/29 11:34:37;;;;;;;3.97;1.70;;;28.30;62.10;;;;;;4881559;29;20044;-76
2023/09/29 11:37:04;;;;;;;7.20;1.90;;;28.30;64.30;;;;;;4881674;29;20048;-76
2023/09/29 11:39:30;;;;;;;5.68;1.90;;;28.40;64.40;;;;;;4878087;29;20035;-76
2023/09/29 11:41:57;;;;;;;4.88;1.70;;;28.70;67.50;;;;;;4878282;29;20041;-76
2023/09/29 11:44:23;;;;;;;3.95;1.70;;;28.90;61.20;;;;;;4878462;29;20173;-76
2023/09/29 11:46:49;;;;;;;6.47;1.90;;;29.10;61.50;;;;;;4884211;29;20076;-77
2023/09/29 11:49:15;;;;;;;4.88;1.77;;;29.20;60.10;;;;;;4886963;29;20127;-76
2023/09/29 11:51:40;;;;;;;4.35;1.60;;;29.00;60.80;;;;;;4881344;29;20032;-75
2023/09/29 11:54:06;;;;;;;5.28;1.70;;;28.90;61.50;;;;;;4878389;29;20029;-77
2023/09/29 11:56:31;;;;;;;6.43;1.85;;;28.70;62.60;;;;;;4877593;29;20036;-77
2023/09/29 11:58:57;;;;;;;7.97;1.92;;;28.50;66.90;;;;;;4883740;29;20108;-76
2023/09/29 12:01:26;;;;;;;7.68;2.00;;;28.10;56.10;;;;;;4884729;29;20155;-76
2023/09/29 12:03:52;;;;;;;5.97;1.88;;;28.00;64.80;;;;;;4886393;29;20036;-76
2023/09/29 12:06:17;;;;;;;7.05;1.88;;;27.90;66.30;;;;;;4881394;29;20029;-76
2023/09/29 12:08:43;;;;;;;5.55;1.50;;;27.70;60.40;;;;;;4876791;29;20060;-76
2023/09/29 12:11:10;;;;;;;4.80;1.70;;;27.50;62.70;;;;;;4878443;29;20025;-76
2023/09/29 12:13:39;;;;;;;5.68;1.80;;;27.50;62.10;;;;;;4875261;29;20105;-77
2023/09/29 12:16:07;;;;;;;5.93;1.60;;;27.40;58.60;;;;;;4875977;29;20033;-77
2023/09/29 12:18:33;;;;;;;6.40;1.85;;;27.30;59.20;;;;;;4881318;29;20464;-77
2023/09/29 12:20:59;;;;;;;5.32;2.10;;;27.10;59.70;;;;;;4877307;29;20150;-78
2023/09/29 12:23:24;;;;;;;6.93;1.75;;;27.20;64.20;;;;;;4879111;29;20498;-76
2023/09/29 12:25:50;;;;;;;4.38;1.60;;;27.10;64.50;;;;;;4875592;29;20029;-76
2023/09/29 12:28:15;;;;;;;5.75;1.80;;;27.10;64.30;;;;;;4874360;29;20487;-76
2023/09/29 12:30:46;;;;;;;5.03;1.67;;;26.80;57.70;;;;;;4877571;29;20075;-76
2023/09/29 12:33:11;;;;;;;3.00;1.25;;;26.60;62.90;;;;;;4879600;29;20490;-76
2023/09/29 12:35:37;;;;;;;4.28;1.88;;;26.50;67.20;;;;;;4882243;29;20044;-77
2023/09/29 12:38:03;;;;;;;6.47;1.73;;;26.60;64.00;;;;;;4877146;29;20040;-75
2023/09/29 12:40:30;;;;;;;4.22;1.40;;;26.40;60.00;;;;;;4880260;29;20101;-76
2023/09/29 12:42:58;;;;;;;11.18;2.90;;;26.60;67.50;;;;;;4877592;29;20049;-77
2023/09/29 12:45:23;;;;;;;4.88;1.60;;;26.70;65.40;;;;;;4880088;29;20052;-76
2023/09/29 12:47:58;;;;;;;7.32;1.75;;;26.60;59.90;;;;;;4876083;29;20510;-77